createdAt,value
2022-12-31T08:08:33.675Z,30.93
2022-12-31T08:09:40.691Z,29.13
2022-12-31T08:11:07.070Z,31.06
2022-12-31T08:12:11.272Z,29.93
2022-12-31T08:13:17.428Z,30.75
2022-12-31T08:14:21.798Z,31.06
2022-12-31T08:15:30.290Z,30.53
2022-12-31T08:16:32.103Z,29.69
2022-12-31T08:17:36.225Z,31.25
2022-12-31T08:18:40.765Z,30.94
2022-12-31T08:19:45.263Z,31.47
2022-12-31T08:21:22.298Z,29.07
2022-12-31T08:22:47.479Z,30.94
2022-12-31T08:24:03.162Z,30.37
2022-12-31T08:25:28.325Z,31.37
2022-12-31T08:26:38.413Z,33.27
2022-12-31T08:27:54.659Z,30.37
2022-12-31T08:29:10.541Z,28.12
2022-12-31T08:30:23.710Z,23.19
2022-12-31T08:31:33.467Z,31.87
2022-12-31T08:32:52.275Z,31.07
2022-12-31T08:34:30.996Z,31.62
2022-12-31T08:36:03.511Z,32.56
2022-12-31T08:37:13.264Z,31.81
2022-12-31T08:38:39.668Z,31.19
2022-12-31T08:39:52.175Z,30.06
2022-12-31T08:41:08.055Z,31.37
2022-12-31T08:42:26.792Z,31.07
2022-12-31T08:43:49.954Z,30.60
2022-12-31T08:44:56.991Z,29.44
2022-12-31T08:46:01.793Z,30.93
2022-12-31T08:47:21.071Z,29.00
2022-12-31T08:48:42.867Z,31.13
2022-12-31T08:49:47.057Z,32.75
2022-12-31T08:50:51.270Z,31.12
2022-12-31T08:51:55.601Z,32.53
2022-12-31T08:53:00.170Z,29.56
2022-12-31T08:54:04.438Z,31.53
2022-12-31T08:55:10.285Z,31.56
2022-12-31T08:56:17.353Z,32.53
2022-12-31T08:57:33.479Z,33.06
2022-12-31T08:58:43.242Z,31.12
2022-12-31T08:59:50.391Z,30.56
2022-12-31T09:00:57.898Z,31.60
2022-12-31T09:02:30.441Z,30.93
2022-12-31T09:03:46.409Z,28.93
2022-12-31T09:05:28.208Z,29.19
2022-12-31T09:06:46.278Z,32.13
2022-12-31T09:08:09.670Z,28.47
2022-12-31T09:09:16.866Z,30.33
2022-12-31T09:10:40.137Z,29.44
2022-12-31T09:11:47.025Z,31.44
2022-12-31T09:13:14.963Z,29.69
2022-12-31T09:14:27.703Z,29.87
2022-12-31T09:15:50.083Z,30.47
2022-12-31T09:17:25.492Z,29.93
2022-12-31T09:18:33.290Z,27.67
2022-12-31T09:19:36.845Z,28.25
2022-12-31T09:20:43.359Z,27.06
2022-12-31T09:21:47.405Z,29.81
2022-12-31T09:22:52.787Z,29.63
2022-12-31T09:23:56.996Z,31.33
2022-12-31T09:25:01.114Z,29.40
2022-12-31T09:26:08.159Z,30.53
2022-12-31T09:27:15.242Z,29.53
2022-12-31T09:28:22.167Z,25.56
2022-12-31T09:29:41.257Z,28.07
2022-12-31T09:31:00.081Z,29.37
2022-12-31T09:32:26.164Z,28.25
2022-12-31T09:33:38.907Z,27.33
2022-12-31T09:34:48.473Z,27.31
2022-12-31T09:36:01.180Z,26.44
2022-12-31T09:37:08.214Z,26.56
2022-12-31T09:38:20.802Z,26.67
2022-12-31T09:39:41.539Z,28.33
2022-12-31T09:41:04.953Z,28.81
2022-12-31T09:42:44.944Z,28.44
2022-12-31T09:43:58.985Z,30.12
2022-12-31T09:45:24.282Z,30.69
2022-12-31T09:46:46.435Z,29.87
2022-12-31T09:48:11.318Z,30.60
2022-12-31T09:49:45.094Z,28.19
2022-12-31T09:51:09.957Z,30.07
2022-12-31T09:52:17.167Z,29.31
2022-12-31T09:53:27.086Z,30.06
2022-12-31T09:54:48.918Z,28.62
2022-12-31T09:56:07.831Z,28.69
2022-12-31T09:57:20.667Z,28.19
2022-12-31T09:58:45.892Z,30.20
2022-12-31T10:00:11.075Z,28.12
2022-12-31T10:01:27.286Z,28.62
2022-12-31T10:02:58.906Z,30.07
2022-12-31T10:04:23.395Z,29.31
2022-12-31T10:05:30.624Z,27.67
2022-12-31T10:06:43.525Z,29.06
2022-12-31T10:09:41.391Z,29.44
2022-12-31T10:10:48.431Z,28.44
2022-12-31T10:12:05.282Z,28.00
2022-12-31T10:13:18.288Z,29.75
2022-12-31T10:14:56.777Z,30.67
2022-12-31T10:16:21.858Z,28.38
2022-12-31T10:17:28.971Z,30.81
2022-12-31T10:19:09.073Z,29.60
2022-12-31T10:20:49.583Z,29.00
2022-12-31T10:22:11.389Z,30.62
2022-12-31T10:23:34.910Z,30.56
2022-12-31T10:24:47.838Z,29.25
2022-12-31T10:26:03.487Z,29.81
2022-12-31T10:27:43.469Z,30.12
2022-12-31T10:28:50.457Z,27.75
2022-12-31T10:30:18.738Z,28.33
2022-12-31T10:31:37.660Z,30.37
2022-12-31T10:33:04.168Z,29.40
2022-12-31T10:34:29.369Z,28.75
2022-12-31T10:35:42.355Z,29.12
2022-12-31T10:37:10.449Z,30.44
2022-12-31T10:38:29.511Z,29.00
2022-12-31T10:39:48.370Z,32.94
2022-12-31T10:40:59.410Z,31.94
2022-12-31T10:42:34.586Z,31.27
2022-12-31T10:44:16.419Z,31.87
2022-12-31T10:45:55.350Z,30.88
2022-12-31T10:47:29.640Z,32.44
2022-12-31T10:48:39.708Z,32.13
2022-12-31T10:50:09.137Z,31.73
2022-12-31T10:51:31.279Z,31.62
2022-12-31T10:52:44.374Z,33.44
2022-12-31T10:54:15.505Z,29.19
2022-12-31T10:55:39.046Z,33.44
2022-12-31T10:57:01.224Z,32.00
2022-12-31T10:58:41.339Z,26.53
2022-12-31T10:59:51.203Z,30.50
2022-12-31T11:01:10.162Z,32.13
2022-12-31T11:02:32.407Z,31.50
2022-12-31T11:04:01.274Z,31.44
2022-12-31T11:05:27.716Z,30.81
2022-12-31T11:06:37.572Z,30.37
2022-12-31T11:08:12.973Z,28.87
2022-12-31T11:09:52.564Z,30.75
2022-12-31T11:11:21.562Z,32.13
2022-12-31T11:12:56.889Z,30.27
2022-12-31T11:14:31.516Z,31.47
2022-12-31T11:15:50.429Z,30.53
2022-12-31T11:17:12.255Z,31.62
2022-12-31T11:18:22.025Z,28.94
2022-12-31T11:19:54.428Z,29.93
2022-12-31T11:21:10.168Z,29.94
2022-12-31T11:22:39.665Z,29.31
2022-12-31T11:23:49.394Z,28.50
2022-12-31T11:25:15.439Z,28.94
2022-12-31T11:26:47.670Z,27.33
2022-12-31T11:28:14.539Z,26.50
2022-12-31T11:30:06.552Z,29.56
2022-12-31T11:31:18.905Z,28.94
2022-12-31T11:32:40.804Z,27.13
2022-12-31T11:33:55.412Z,27.50
2022-12-31T11:35:02.377Z,27.06
2022-12-31T11:36:12.086Z,26.31
2022-12-31T11:37:37.050Z,26.00
2022-12-31T11:38:51.845Z,28.25
2022-12-31T11:40:16.881Z,28.20
2022-12-31T11:41:41.874Z,26.62
2022-12-31T11:43:00.621Z,25.56
2022-12-31T11:44:32.994Z,27.75
2022-12-31T11:46:12.032Z,27.94
2022-12-31T11:50:23.996Z,27.13
2022-12-31T11:51:34.020Z,26.06
2022-12-31T11:52:46.954Z,26.56
2022-12-31T11:54:16.475Z,26.69
2022-12-31T11:55:32.534Z,22.19
2022-12-31T11:58:50.610Z,26.06
2022-12-31T11:59:59.128Z,27.94
2022-12-31T12:01:14.834Z,7.62
2022-12-31T12:02:35.659Z,25.33
2022-12-31T12:03:42.759Z,28.69
2022-12-31T12:04:51.571Z,26.27
2022-12-31T12:05:58.092Z,26.37
2022-12-31T12:07:14.821Z,26.25
2022-12-31T12:08:40.608Z,22.47
2022-12-31T12:09:47.841Z,24.50
2022-12-31T12:10:57.325Z,25.80
2022-12-31T12:12:04.692Z,27.56
2022-12-31T12:13:11.869Z,27.31
2022-12-31T12:14:43.117Z,26.00
2022-12-31T12:15:57.981Z,27.50
2022-12-31T12:17:05.971Z,28.25
2022-12-31T12:18:13.350Z,28.53
2022-12-31T12:19:21.237Z,27.00
2022-12-31T12:20:43.212Z,27.00
2022-12-31T12:21:52.214Z,24.00
2022-12-31T12:22:58.533Z,23.56
2022-12-31T12:24:08.254Z,26.73
2022-12-31T12:25:18.207Z,28.06
2022-12-31T12:26:38.691Z,27.87
2022-12-31T12:27:46.554Z,28.00
2022-12-31T12:28:50.620Z,25.53
2022-12-31T12:29:54.745Z,26.31
2022-12-31T12:31:04.605Z,27.50
2022-12-31T12:32:20.489Z,26.33
2022-12-31T12:33:24.975Z,22.87
2022-12-31T12:34:38.064Z,27.07
2022-12-31T12:35:45.113Z,22.62
2022-12-31T12:36:49.293Z,27.62
2022-12-31T12:38:05.445Z,26.19
2022-12-31T12:39:12.979Z,26.50
2022-12-31T12:40:24.067Z,25.73
2022-12-31T12:41:31.941Z,28.07
2022-12-31T12:42:48.973Z,27.75
2022-12-31T12:43:45.333Z,26.40
2022-12-31T12:44:49.462Z,26.47
2022-12-31T12:45:55.749Z,25.75
2022-12-31T12:47:06.436Z,24.31
2022-12-31T12:48:16.323Z,25.37
2022-12-31T12:49:39.069Z,26.81
2022-12-31T12:50:46.552Z,24.93
2022-12-31T12:52:04.414Z,24.94
2022-12-31T12:53:11.617Z,24.94
2022-12-31T12:54:30.574Z,26.00
2022-12-31T12:55:48.871Z,25.31
2022-12-31T12:57:06.915Z,23.75
2022-12-31T12:58:29.288Z,27.13
2022-12-31T13:00:08.058Z,27.13
2022-12-31T13:01:33.294Z,27.25
2022-12-31T13:02:52.180Z,29.19
2022-12-31T13:04:33.566Z,28.00
2022-12-31T13:05:27.931Z,25.75
2022-12-31T13:06:52.747Z,29.63
2022-12-31T13:08:32.778Z,29.75
2022-12-31T13:09:48.458Z,29.73
2022-12-31T13:11:13.753Z,28.80
2022-12-31T13:13:13.852Z,26.31
2022-12-31T13:13:50.074Z,28.69
2022-12-31T13:14:57.193Z,29.07
2022-12-31T13:16:22.128Z,27.07
2022-12-31T13:18:06.302Z,28.93
2022-12-31T13:19:31.816Z,28.47
2022-12-31T13:21:02.489Z,28.87
2022-12-31T13:22:18.542Z,30.75
2022-12-31T13:23:25.768Z,31.87
2022-12-31T13:24:37.338Z,30.73
2022-12-31T13:25:59.801Z,30.19
2022-12-31T13:27:24.931Z,29.50
2022-12-31T13:28:33.418Z,30.93
2022-12-31T13:29:43.004Z,28.87
2022-12-31T13:30:50.099Z,31.07
2022-12-31T13:31:57.469Z,31.80
2022-12-31T13:33:22.689Z,32.80
2022-12-31T13:34:35.868Z,31.75
2022-12-31T13:35:58.405Z,32.27
2022-12-31T13:37:05.483Z,31.75
2022-12-31T13:38:17.127Z,28.47
2022-12-31T13:39:26.755Z,29.13
2022-12-31T13:40:54.412Z,29.13
2022-12-31T13:42:09.718Z,27.87
2022-12-31T13:43:32.985Z,26.80
2022-12-31T13:44:41.688Z,26.40
2022-12-31T13:45:48.091Z,29.07
2022-12-31T13:46:55.394Z,28.50
2022-12-31T13:48:05.482Z,28.53
2022-12-31T13:49:18.095Z,27.13
2022-12-31T13:50:34.079Z,28.60
2022-12-31T13:51:46.986Z,28.50
2022-12-31T13:53:03.200Z,29.27
2022-12-31T13:54:26.648Z,29.47
2022-12-31T13:55:39.631Z,29.37
2022-12-31T13:56:48.255Z,29.60
2022-12-31T13:58:04.069Z,29.20
2022-12-31T13:59:28.713Z,29.31
2022-12-31T14:00:35.724Z,31.19
2022-12-31T14:01:54.272Z,30.69
2022-12-31T14:03:28.496Z,30.37
2022-12-31T14:04:51.828Z,31.12
2022-12-31T14:06:18.439Z,31.40
2022-12-31T14:07:40.505Z,31.69
2022-12-31T14:08:45.565Z,30.75
2022-12-31T14:09:51.240Z,31.80
2022-12-31T14:11:01.161Z,31.50
2022-12-31T14:12:10.876Z,31.20
2022-12-31T14:13:37.252Z,29.12
2022-12-31T14:14:59.306Z,30.31
2022-12-31T14:16:15.032Z,31.19
2022-12-31T14:19:16.815Z,28.00
2022-12-31T14:20:43.639Z,27.06
2022-12-31T14:21:56.659Z,28.47
2022-12-31T14:23:21.747Z,27.31
2022-12-31T14:24:33.085Z,27.93
2022-12-31T14:25:46.207Z,29.56
2022-12-31T14:26:59.050Z,27.56
2022-12-31T14:28:07.123Z,26.81
2022-12-31T14:29:17.192Z,27.94
2022-12-31T14:30:28.432Z,26.44
2022-12-31T14:31:50.240Z,27.19
2022-12-31T14:33:13.763Z,26.06
2022-12-31T14:34:30.067Z,28.25
2022-12-31T14:36:01.817Z,30.07
2022-12-31T14:37:17.512Z,29.47
2022-12-31T14:38:54.722Z,28.20
2022-12-31T14:40:26.934Z,29.06
2022-12-31T14:41:51.810Z,30.00
2022-12-31T14:43:27.115Z,30.88
2022-12-31T14:44:39.481Z,31.20
2022-12-31T14:46:12.240Z,32.47
2022-12-31T14:47:29.206Z,31.47
2022-12-31T14:48:52.694Z,32.73
2022-12-31T14:50:04.066Z,31.20
2022-12-31T14:51:09.536Z,31.53
2022-12-31T14:52:26.705Z,30.73
2022-12-31T14:53:36.786Z,30.56
2022-12-31T14:54:41.363Z,30.13
2022-12-31T14:55:47.144Z,31.37
2022-12-31T14:56:53.578Z,30.20
2022-12-31T14:58:27.244Z,31.56
2022-12-31T14:59:23.790Z,30.62
2022-12-31T15:00:40.334Z,31.00
2022-12-31T15:01:48.819Z,30.20
2022-12-31T15:03:01.821Z,31.12
2022-12-31T15:04:10.615Z,30.75
2022-12-31T15:05:17.708Z,31.94
2022-12-31T15:06:39.654Z,30.62
2022-12-31T15:07:58.742Z,29.50
2022-12-31T15:09:37.653Z,31.50
2022-12-31T15:10:44.785Z,32.40
2022-12-31T15:12:09.703Z,29.60
2022-12-31T15:13:39.549Z,27.80
2022-12-31T15:15:03.285Z,31.69
2022-12-31T15:16:43.671Z,32.27
2022-12-31T15:18:15.100Z,32.07
2022-12-31T15:19:30.848Z,31.37
2022-12-31T15:20:40.818Z,32.06
2022-12-31T15:21:53.851Z,32.73
2022-12-31T15:22:58.060Z,32.06
2022-12-31T15:24:02.739Z,31.12
2022-12-31T15:25:35.376Z,32.13
2022-12-31T15:26:38.214Z,31.25
2022-12-31T15:27:51.888Z,28.94
2022-12-31T15:29:02.524Z,32.81
2022-12-31T15:30:07.903Z,33.20
2022-12-31T15:31:18.655Z,33.13
2022-12-31T15:32:27.092Z,32.63
2022-12-31T15:33:41.426Z,32.19
2022-12-31T15:34:47.970Z,32.50
2022-12-31T15:35:54.763Z,32.44
2022-12-31T15:37:01.565Z,34.69
2022-12-31T15:38:17.415Z,32.75
2022-12-31T15:39:34.912Z,33.53
2022-12-31T15:40:47.800Z,32.20
2022-12-31T15:42:35.675Z,32.67
2022-12-31T15:43:26.019Z,33.81
2022-12-31T15:44:51.204Z,32.88
2022-12-31T15:45:58.105Z,30.80
2022-12-31T15:47:11.188Z,32.00
2022-12-31T15:48:20.890Z,30.94
2022-12-31T15:49:26.351Z,31.62
2022-12-31T15:50:36.569Z,29.53
2022-12-31T15:52:02.832Z,31.27
2022-12-31T15:53:07.777Z,28.73
2022-12-31T15:54:23.288Z,29.81
2022-12-31T15:55:42.276Z,28.93
2022-12-31T15:56:46.577Z,29.67
2022-12-31T15:57:52.932Z,30.33
2022-12-31T15:58:59.530Z,28.50
2022-12-31T16:00:06.633Z,30.25
2022-12-31T16:01:14.098Z,30.19
2022-12-31T16:02:23.599Z,28.69
2022-12-31T16:03:29.717Z,29.27
2022-12-31T16:04:35.458Z,29.73
2022-12-31T16:05:39.741Z,29.25
2022-12-31T16:06:50.619Z,28.12
2022-12-31T16:07:57.375Z,29.80
2022-12-31T16:09:01.619Z,27.94
2022-12-31T16:10:07.041Z,27.87
2022-12-31T16:11:17.903Z,29.37
2022-12-31T16:12:33.232Z,26.81
2022-12-31T16:13:39.571Z,31.75
2022-12-31T16:14:46.696Z,29.60
2022-12-31T16:15:53.543Z,28.62
2022-12-31T16:17:00.412Z,30.19
2022-12-31T16:18:09.159Z,28.69
2022-12-31T16:19:27.258Z,30.06
2022-12-31T16:20:33.030Z,28.73
2022-12-31T16:21:41.558Z,30.07
2022-12-31T16:22:46.002Z,28.69
2022-12-31T16:23:55.407Z,28.73
2022-12-31T16:26:08.327Z,27.37
2022-12-31T16:27:18.591Z,27.20
2022-12-31T16:28:28.454Z,29.12
2022-12-31T16:29:35.981Z,28.07
2022-12-31T16:30:56.937Z,28.56
2022-12-31T16:32:02.950Z,28.69
2022-12-31T16:33:11.381Z,27.87
2022-12-31T16:34:18.635Z,27.37
2022-12-31T16:35:46.328Z,29.87
2022-12-31T16:37:04.593Z,28.75
2022-12-31T16:38:15.644Z,27.81
2022-12-31T16:39:58.487Z,26.87
2022-12-31T16:41:05.204Z,27.44
2022-12-31T16:42:21.291Z,26.87
2022-12-31T16:43:39.568Z,27.81
2022-12-31T16:44:43.748Z,28.44
2022-12-31T16:45:49.122Z,27.73
2022-12-31T16:46:56.056Z,26.56
2022-12-31T16:48:03.139Z,27.31
2022-12-31T16:49:16.440Z,27.56
2022-12-31T16:50:24.393Z,28.69
2022-12-31T16:51:33.632Z,28.50
2022-12-31T16:52:43.617Z,26.62
2022-12-31T16:53:49.070Z,26.31
2022-12-31T16:54:54.677Z,27.73
2022-12-31T16:56:04.833Z,27.50
2022-12-31T16:57:11.911Z,28.62
2022-12-31T16:58:29.107Z,26.81
2022-12-31T16:59:36.479Z,25.19
2022-12-31T17:00:41.378Z,26.87
2022-12-31T17:01:46.808Z,28.56
2022-12-31T17:03:05.825Z,26.19
2022-12-31T17:04:15.005Z,28.00
2022-12-31T17:05:26.054Z,28.31
2022-12-31T17:06:32.358Z,26.60
2022-12-31T17:07:43.643Z,27.50
2022-12-31T17:08:56.713Z,27.94
2022-12-31T17:10:21.427Z,29.07
2022-12-31T17:11:28.472Z,28.56
2022-12-31T17:13:16.954Z,29.31
2022-12-31T17:13:46.467Z,26.13
2022-12-31T17:14:57.245Z,29.00
2022-12-31T17:16:05.896Z,28.81
2022-12-31T17:17:11.611Z,28.06
2022-12-31T17:18:22.543Z,28.00
2022-12-31T17:19:44.421Z,27.56
2022-12-31T17:20:51.304Z,27.50
2022-12-31T17:21:55.648Z,26.87
2022-12-31T17:23:02.744Z,27.40
2022-12-31T17:24:09.015Z,27.87
2022-12-31T17:25:35.852Z,27.60
2022-12-31T17:26:43.381Z,29.19
2022-12-31T17:28:01.597Z,29.60
2022-12-31T17:29:05.948Z,28.81
2022-12-31T17:30:29.525Z,29.27
2022-12-31T17:31:41.168Z,28.94
2022-12-31T17:32:50.608Z,28.94
2022-12-31T17:33:57.401Z,28.19
2022-12-31T17:35:07.390Z,27.87
2022-12-31T17:36:23.501Z,26.81
2022-12-31T17:37:30.421Z,27.81
2022-12-31T17:38:38.443Z,27.31
2022-12-31T17:39:48.280Z,28.75
2022-12-31T17:40:56.632Z,26.87
2022-12-31T17:42:02.331Z,27.93
2022-12-31T17:43:07.983Z,28.81
2022-12-31T17:44:18.051Z,27.67
2022-12-31T17:45:25.556Z,26.62
2022-12-31T17:46:31.730Z,29.00
2022-12-31T17:47:41.647Z,27.87
2022-12-31T17:48:47.932Z,28.12
2022-12-31T17:49:53.819Z,27.13
2022-12-31T17:51:00.480Z,27.07
2022-12-31T17:52:23.567Z,28.00
2022-12-31T17:53:28.238Z,26.87
2022-12-31T17:54:32.565Z,26.12
2022-12-31T17:55:36.979Z,29.31
2022-12-31T17:56:45.290Z,25.87
2022-12-31T17:57:56.526Z,26.06
2022-12-31T17:59:06.529Z,26.47
2022-12-31T18:00:21.902Z,29.19
2022-12-31T18:02:37.489Z,28.81
2022-12-31T18:03:03.057Z,29.07
2022-12-31T18:04:16.817Z,28.67
2022-12-31T18:05:24.014Z,27.00
2022-12-31T18:06:28.251Z,28.00
2022-12-31T18:07:34.082Z,29.40
2022-12-31T18:08:38.608Z,28.12
2022-12-31T18:09:42.699Z,27.87
2022-12-31T18:10:46.879Z,28.67
2022-12-31T18:12:01.646Z,26.87
2022-12-31T18:13:14.456Z,27.75
2022-12-31T18:14:18.556Z,29.00
2022-12-31T18:15:25.094Z,26.67
2022-12-31T18:16:29.806Z,26.87
2022-12-31T18:17:35.647Z,28.27
2022-12-31T18:18:39.691Z,29.53
2022-12-31T18:20:04.064Z,28.25
2022-12-31T18:20:54.415Z,28.47
2022-12-31T18:22:03.010Z,27.62
2022-12-31T18:23:08.555Z,25.50
2022-12-31T18:24:17.270Z,29.33
2022-12-31T18:25:24.448Z,29.33
2022-12-31T18:26:31.403Z,29.20
2022-12-31T18:27:35.460Z,28.00
2022-12-31T18:28:39.657Z,26.81
2022-12-31T18:29:46.360Z,27.07
2022-12-31T18:30:51.147Z,28.93
2022-12-31T18:31:55.714Z,28.06
2022-12-31T18:33:01.237Z,28.31
2022-12-31T18:34:13.202Z,29.12
2022-12-31T18:36:29.732Z,28.94
2022-12-31T18:37:35.811Z,28.27
2022-12-31T18:38:40.968Z,29.81
2022-12-31T18:39:45.604Z,28.50
2022-12-31T18:40:58.536Z,27.69
2022-12-31T18:43:04.900Z,28.25
2022-12-31T18:43:29.572Z,29.07
2022-12-31T18:44:33.767Z,28.87
2022-12-31T18:45:41.402Z,25.50
2022-12-31T18:46:48.221Z,27.73
2022-12-31T18:47:53.440Z,26.60
2022-12-31T18:49:56.367Z,25.27
2022-12-31T18:50:19.282Z,27.25
2022-12-31T18:51:31.515Z,24.94
2022-12-31T18:52:30.549Z,25.67
2022-12-31T18:53:37.460Z,24.94
2022-12-31T18:54:41.459Z,26.37
2022-12-31T18:55:48.999Z,26.53
2022-12-31T18:56:57.049Z,25.31
2022-12-31T18:57:58.990Z,26.37
2022-12-31T18:59:03.488Z,27.81
2022-12-31T19:00:14.673Z,26.40
2022-12-31T19:01:37.299Z,27.37
2022-12-31T19:02:41.547Z,27.25
2022-12-31T19:03:45.595Z,27.62
2022-12-31T19:04:49.616Z,26.19
2022-12-31T19:05:55.121Z,26.80
2022-12-31T19:06:59.333Z,26.81
2022-12-31T19:08:03.497Z,24.44
2022-12-31T19:09:23.691Z,25.94
2022-12-31T19:10:16.878Z,26.31
2022-12-31T19:11:21.907Z,27.33
2022-12-31T19:12:26.087Z,24.47
2022-12-31T19:13:30.185Z,25.00
2022-12-31T19:14:36.988Z,25.06
2022-12-31T19:15:49.245Z,25.00
2022-12-31T19:16:54.389Z,25.81
2022-12-31T19:17:58.784Z,26.31
2022-12-31T19:19:08.447Z,27.00
2022-12-31T19:20:08.916Z,26.37
2022-12-31T19:21:19.219Z,26.33
2022-12-31T19:22:23.266Z,25.62
2022-12-31T19:23:27.404Z,24.80
2022-12-31T19:24:34.538Z,26.75
2022-12-31T19:25:41.630Z,26.25
2022-12-31T19:26:45.923Z,25.60
2022-12-31T19:27:50.894Z,24.60
2022-12-31T19:28:55.055Z,26.19
2022-12-31T19:30:00.720Z,23.67
2022-12-31T19:31:04.871Z,26.19
2022-12-31T19:32:11.696Z,27.60
2022-12-31T19:33:16.828Z,25.81
2022-12-31T19:34:21.097Z,26.73
2022-12-31T19:35:25.581Z,26.31
2022-12-31T19:36:29.654Z,26.07
2022-12-31T19:37:37.992Z,26.31
2022-12-31T19:38:44.204Z,25.88
2022-12-31T19:39:48.239Z,26.27
2022-12-31T19:40:56.528Z,26.06
2022-12-31T19:41:59.936Z,24.63
2022-12-31T19:43:04.340Z,19.50
2022-12-31T19:44:11.471Z,26.13
2022-12-31T19:45:18.302Z,25.06
2022-12-31T19:46:22.947Z,24.93
2022-12-31T19:47:29.876Z,25.40
2022-12-31T19:48:35.433Z,26.87
2022-12-31T19:49:39.662Z,26.06
2022-12-31T19:50:46.853Z,26.75
2022-12-31T19:51:50.997Z,26.00
2022-12-31T19:52:58.083Z,26.12
2022-12-31T19:54:02.186Z,25.12
2022-12-31T19:55:06.853Z,25.37
2022-12-31T19:56:16.974Z,25.13
2022-12-31T19:57:21.040Z,25.93
2022-12-31T19:58:27.225Z,25.27
2022-12-31T19:59:31.207Z,24.93
2022-12-31T20:00:35.411Z,27.00
2022-12-31T20:01:41.106Z,25.25
2022-12-31T20:02:51.143Z,24.94
2022-12-31T20:03:55.518Z,27.93
2022-12-31T20:05:01.180Z,25.27
2022-12-31T20:06:08.214Z,26.87
2022-12-31T20:07:12.327Z,26.69
2022-12-31T20:08:16.447Z,25.69
2022-12-31T20:09:20.564Z,24.25
2022-12-31T20:10:24.762Z,25.13
2022-12-31T20:11:28.939Z,23.12
2022-12-31T20:12:34.084Z,27.62
2022-12-31T20:13:40.696Z,24.19
2022-12-31T20:14:44.806Z,26.40
2022-12-31T20:15:48.848Z,25.50
2022-12-31T20:16:53.023Z,26.19
2022-12-31T20:17:59.643Z,25.40
2022-12-31T20:19:05.360Z,25.40
2022-12-31T20:20:09.983Z,25.13
2022-12-31T20:21:16.902Z,24.06
2022-12-31T20:22:21.161Z,26.50
2022-12-31T20:23:25.132Z,26.44
2022-12-31T20:24:29.165Z,25.25
2022-12-31T20:26:08.871Z,25.47
2022-12-31T20:27:18.225Z,26.47
2022-12-31T20:28:18.739Z,27.20
2022-12-31T20:29:22.816Z,24.47
2022-12-31T20:30:26.923Z,26.07
2022-12-31T20:31:36.069Z,26.67
2022-12-31T20:32:42.573Z,24.69
2022-12-31T20:33:48.174Z,26.81
2022-12-31T20:34:55.544Z,26.13
2022-12-31T20:36:08.495Z,25.62
2022-12-31T20:37:12.522Z,25.69
2022-12-31T20:38:16.791Z,25.44
2022-12-31T20:39:20.763Z,25.27
2022-12-31T20:40:35.117Z,24.40
2022-12-31T20:41:40.769Z,24.63
2022-12-31T20:42:56.210Z,20.88
2022-12-31T20:43:52.551Z,27.00
2022-12-31T20:44:59.449Z,25.25
2022-12-31T20:46:12.658Z,25.37
2022-12-31T20:47:23.143Z,24.50
2022-12-31T20:48:26.993Z,25.50
2022-12-31T20:50:09.174Z,25.37
2022-12-31T20:50:44.595Z,23.56
2022-12-31T20:51:52.348Z,23.80
2022-12-31T20:52:57.386Z,25.31
2022-12-31T20:54:07.136Z,25.73
2022-12-31T20:55:14.005Z,24.37
2022-12-31T20:56:18.622Z,24.94
2022-12-31T20:57:22.665Z,25.37
2022-12-31T20:58:28.260Z,24.19
2022-12-31T20:59:35.361Z,23.38
2022-12-31T21:00:39.782Z,24.50
2022-12-31T21:02:20.171Z,23.62
2022-12-31T21:03:00.615Z,23.60
2022-12-31T21:04:05.805Z,26.50
2022-12-31T21:05:09.943Z,24.69
2022-12-31T21:06:16.548Z,22.94
2022-12-31T21:07:25.145Z,20.73
2022-12-31T21:08:34.603Z,23.60
2022-12-31T21:09:40.628Z,25.00
2022-12-31T21:10:43.675Z,24.69
2022-12-31T21:11:50.267Z,23.44
2022-12-31T21:14:15.481Z,24.13
2022-12-31T21:15:31.071Z,24.27
2022-12-31T21:16:39.089Z,23.93
2022-12-31T21:17:42.809Z,22.19
2022-12-31T21:18:51.260Z,23.06
2022-12-31T21:19:55.343Z,20.75
2022-12-31T21:21:02.440Z,24.00
2022-12-31T21:22:06.550Z,22.60
2022-12-31T21:23:12.137Z,24.25
2022-12-31T21:24:21.770Z,23.53
2022-12-31T21:25:23.669Z,23.00
2022-12-31T21:26:28.573Z,24.00
2022-12-31T21:27:32.719Z,24.87
2022-12-31T21:28:37.044Z,24.69
2022-12-31T21:30:02.061Z,23.47
2022-12-31T21:30:48.576Z,23.06
2022-12-31T21:31:56.568Z,24.56
2022-12-31T21:33:00.823Z,23.19
2022-12-31T21:34:04.956Z,21.37
2022-12-31T21:35:41.095Z,23.06
2022-12-31T21:36:16.243Z,22.06
2022-12-31T21:37:20.283Z,24.60
2022-12-31T21:38:24.367Z,23.12
2022-12-31T21:39:40.594Z,22.62
2022-12-31T21:41:11.228Z,23.31
2022-12-31T21:43:39.555Z,23.69
2022-12-31T21:44:47.318Z,23.56
2022-12-31T21:46:02.961Z,23.53
2022-12-31T21:47:34.336Z,24.80
2022-12-31T21:48:16.064Z,24.73
2022-12-31T21:49:20.202Z,24.67
2022-12-31T21:50:24.280Z,23.19
2022-12-31T21:51:30.391Z,22.93
2022-12-31T21:52:36.205Z,24.37
2022-12-31T21:53:40.428Z,23.07
2022-12-31T21:54:44.508Z,22.31
2022-12-31T21:55:48.922Z,24.06
2022-12-31T21:57:05.616Z,22.80
2022-12-31T21:58:25.351Z,24.12
2022-12-31T21:59:06.311Z,24.37
2022-12-31T22:00:41.024Z,24.67
2022-12-31T22:01:23.305Z,22.06
2022-12-31T22:02:59.725Z,22.56
2022-12-31T22:04:01.725Z,21.87
2022-12-31T22:05:14.985Z,22.67
2022-12-31T22:06:18.035Z,24.50
2022-12-31T22:07:26.751Z,21.75
2022-12-31T22:08:34.629Z,22.62
2022-12-31T22:09:39.906Z,24.25
2022-12-31T22:10:51.951Z,24.81
2022-12-31T22:12:00.580Z,24.12
2022-12-31T22:13:06.338Z,21.00
2022-12-31T22:14:17.741Z,24.50
2022-12-31T22:15:21.998Z,26.81
2022-12-31T22:17:20.177Z,23.62
2022-12-31T22:18:14.969Z,23.69
2022-12-31T22:21:39.398Z,25.12
2022-12-31T22:24:10.951Z,24.69
2022-12-31T22:25:39.534Z,22.25
2022-12-31T22:28:39.529Z,25.00
2022-12-31T22:29:36.522Z,25.31
2022-12-31T22:30:58.199Z,23.62
2022-12-31T22:32:01.424Z,25.67
2022-12-31T22:33:05.765Z,22.62
2022-12-31T22:36:16.500Z,23.87
2022-12-31T22:37:54.832Z,20.69
2022-12-31T22:38:30.613Z,22.19
2022-12-31T22:39:43.693Z,23.81
2022-12-31T22:40:52.745Z,23.12
2022-12-31T22:41:56.969Z,23.50
2022-12-31T22:43:01.144Z,23.87
2022-12-31T22:44:05.371Z,22.25
2022-12-31T22:45:12.169Z,21.73
2022-12-31T22:46:30.937Z,23.12
2022-12-31T22:47:36.668Z,23.00
2022-12-31T22:48:42.921Z,21.62
2022-12-31T22:49:46.997Z,23.69
2022-12-31T22:51:02.191Z,22.06
2022-12-31T22:52:08.959Z,23.62
2022-12-31T22:54:52.809Z,21.31
2022-12-31T22:54:56.367Z,20.56
2022-12-31T22:56:18.526Z,22.75
2022-12-31T22:57:20.304Z,22.47
2022-12-31T23:03:11.310Z,22.50
2022-12-31T23:04:15.401Z,23.00
2022-12-31T23:05:19.496Z,22.13
2022-12-31T23:06:39.264Z,24.69
2022-12-31T23:08:12.836Z,22.20
2022-12-31T23:09:13.613Z,24.06
2022-12-31T23:10:29.450Z,22.50
2022-12-31T23:11:41.597Z,21.75
2022-12-31T23:12:47.370Z,24.12
2022-12-31T23:13:52.242Z,23.50
2022-12-31T23:14:58.404Z,23.00
2022-12-31T23:16:04.382Z,19.25
2022-12-31T23:17:29.932Z,23.62
2022-12-31T23:18:21.631Z,21.73
2022-12-31T23:19:25.408Z,23.44
2022-12-31T23:20:29.502Z,22.37
2022-12-31T23:21:56.054Z,23.62
2022-12-31T23:22:52.579Z,23.00
2022-12-31T23:24:01.357Z,22.62
2022-12-31T23:25:05.888Z,22.37
2022-12-31T23:26:10.379Z,23.38
2022-12-31T23:27:22.739Z,23.27
2022-12-31T23:28:28.482Z,23.73
2022-12-31T23:29:34.173Z,23.62
2022-12-31T23:30:39.919Z,23.47
2022-12-31T23:31:45.709Z,22.31
2022-12-31T23:32:49.799Z,23.94
2022-12-31T23:33:53.891Z,22.07
2022-12-31T23:34:58.195Z,20.69
2022-12-31T23:36:07.663Z,22.31
2022-12-31T23:37:14.877Z,22.31
2022-12-31T23:38:19.661Z,22.19
2022-12-31T23:39:23.800Z,23.81
2022-12-31T23:40:33.091Z,23.33
2022-12-31T23:41:36.959Z,23.62
2022-12-31T23:42:40.960Z,22.94
2022-12-31T23:43:45.450Z,23.75
2022-12-31T23:44:58.629Z,24.25
2022-12-31T23:46:03.035Z,23.56
2022-12-31T23:47:10.536Z,23.31
2022-12-31T23:48:16.032Z,24.00
2022-12-31T23:49:22.430Z,22.37
2022-12-31T23:50:26.889Z,23.06
2022-12-31T23:51:33.841Z,23.69
2022-12-31T23:52:38.142Z,22.31
2022-12-31T23:53:42.359Z,24.00
2022-12-31T23:54:46.620Z,23.75
2022-12-31T23:55:54.910Z,24.31
2022-12-31T23:56:59.205Z,25.25
2022-12-31T23:58:03.527Z,22.56
2022-12-31T23:59:13.181Z,24.69
